Time;durP1;ratioP1;P1;durP2;ratioP2;P2;SDS_P1;SDS_P2;PMS_P1;PMS_P2;Temp;Humidity;BMP_temperature;BMP_pressure;BME280_temperature;BME280_humidity;BME280_pressure;Samples;Min_cycle;Max_cycle;Signal;HPM_P1;HPM_P2
2022/07/16 00:03:18;;;;;;;;;;;;;;;17.19;60.35;100005.50;5092301;28;2235;-95
2022/07/16 00:05:45;;;;;;;;;;;;;;;17.19;60.26;100013.66;5094156;28;1190;-95
2022/07/16 00:08:11;;;;;;;;;;;;;;;17.16;60.35;100012.31;5101875;28;1829;-95
2022/07/16 00:10:38;;;;;;;;;;;;;;;17.17;60.29;100013.13;5095610;28;2130;-95
2022/07/16 00:13:05;;;;;;;;;;;;;;;17.15;60.28;100015.31;5089525;28;2006;-95
2022/07/16 00:15:31;;;;;;;;;;;;;;;17.15;60.34;100016.13;5083826;28;2350;-95
2022/07/16 00:20:38;;;;;;;;;;;;;;;17.14;60.20;100019.94;5093526;28;2329;-95
2022/07/16 00:23:06;;;;;;;;;;;;;;;17.13;60.34;100023.75;5097837;28;1707;-95
2022/07/16 00:25:33;;;;;;;;;;;;;;;17.12;60.15;100027.56;5085009;28;2050;-95
2022/07/16 00:27:59;;;;;;;;;;;;;;;17.12;60.27;100038.44;5088084;28;2395;-95
2022/07/16 00:30:26;;;;;;;;;;;;;;;17.12;60.38;100037.63;5090855;28;2182;-95
2022/07/16 00:32:52;;;;;;;;;;;;;;;17.10;60.24;100034.38;5085549;28;2446;-95
2022/07/16 00:35:19;;;;;;;;;;;;;;;17.10;60.33;100037.09;5089169;28;2145;-95
2022/07/16 00:37:46;;;;;;;;;;;;;;;17.09;60.20;100044.44;5080713;28;2328;-94
2022/07/16 00:40:12;;;;;;;;;;;;;;;17.07;60.33;100046.63;5085434;28;1911;-94
2022/07/16 00:42:39;;;;;;;;;;;;;;;17.07;60.42;100053.97;5089051;28;2039;-95
2022/07/16 00:45:05;;;;;;;;;;;;;;;17.07;60.24;100056.69;5086756;28;2449;-94
2022/07/16 00:47:32;;;;;;;;;;;;;;;17.05;60.28;100062.38;5095187;28;2114;-94
2022/07/16 00:49:58;;;;;;;;;;;;;;;17.05;60.23;100058.84;5102321;28;1172;-95
2022/07/16 00:52:24;;;;;;;;;;;;;;;17.03;60.20;100062.69;5076487;28;2035;-95
2022/07/16 00:54:51;;;;;;;;;;;;;;;17.02;60.30;100061.03;5080882;28;1910;-95
2022/07/16 00:57:18;;;;;;;;;;;;;;;17.01;60.18;100067.56;5059601;28;1984;-95
2022/07/16 00:59:44;;;;;;;;;;;;;;;17.01;60.08;100069.47;5077011;28;1194;-95
2022/07/16 01:02:11;;;;;;;;;;;;;;;17.00;60.30;100074.13;5083866;28;2236;-95
2022/07/16 01:04:37;;;;;;;;;;;;;;;16.99;60.08;100080.63;5081124;28;2447;-95
2022/07/16 01:07:04;;;;;;;;;;;;;;;16.99;60.20;100090.69;5100940;28;1966;-95
2022/07/16 01:09:31;;;;;;;;;;;;;;;16.98;60.22;100089.88;5091029;28;2368;-94
2022/07/16 01:11:57;;;;;;;;;;;;;;;16.95;60.21;100090.44;5093227;28;2011;-95
2022/07/16 01:14:24;;;;;;;;;;;;;;;16.96;60.19;100097.50;5087549;28;2440;-95
2022/07/16 01:16:51;;;;;;;;;;;;;;;16.95;60.16;100097.78;5087620;28;2137;-95
2022/07/16 01:19:17;;;;;;;;;;;;;;;16.93;60.12;100092.59;5095555;28;2408;-95
2022/07/16 01:21:44;;;;;;;;;;;;;;;16.92;60.18;100090.16;5086122;28;2406;-95
2022/07/16 01:24:11;;;;;;;;;;;;;;;16.92;60.10;100096.41;5086024;28;2340;-94
2022/07/16 01:26:37;;;;;;;;;;;;;;;16.91;60.10;100097.50;5085741;28;2363;-95
2022/07/16 01:29:04;;;;;;;;;;;;;;;16.90;60.27;100100.50;5083085;28;1978;-95
2022/07/16 01:31:30;;;;;;;;;;;;;;;16.90;60.34;100106.75;5082350;28;5124;-95
2022/07/16 01:36:41;;;;;;;;;;;;;;;16.88;60.18;100118.97;5091149;28;1919;-95
2022/07/16 01:39:08;;;;;;;;;;;;;;;16.88;60.10;100119.78;5090631;28;2232;-94
2022/07/16 01:41:34;;;;;;;;;;;;;;;16.87;60.05;100120.06;5088233;28;2248;-95
2022/07/16 01:44:01;;;;;;;;;;;;;;;16.85;60.12;100117.63;5086419;28;2204;-95
2022/07/16 01:46:27;;;;;;;;;;;;;;;16.87;60.04;100125.50;5080012;28;2403;-96
2022/07/16 01:48:54;;;;;;;;;;;;;;;16.84;60.11;100124.16;5085932;28;2332;-95
2022/07/16 01:51:21;;;;;;;;;;;;;;;16.84;60.09;100123.34;5084161;28;2347;-94
2022/07/16 01:53:47;;;;;;;;;;;;;;;16.83;59.96;100122.53;5106200;28;2406;-94
2022/07/16 01:56:14;;;;;;;;;;;;;;;16.83;60.02;100124.44;5094455;28;2455;-95
2022/07/16 01:58:40;;;;;;;;;;;;;;;16.81;60.32;100130.13;5100152;28;2417;-94
2022/07/16 02:01:07;;;;;;;;;;;;;;;16.80;59.89;100133.94;5087487;28;2514;-95
2022/07/16 02:03:33;;;;;;;;;;;;;;;16.79;60.03;100141.28;5083819;28;1801;-95
2022/07/16 02:05:59;;;;;;;;;;;;;;;16.79;59.99;100148.63;5079807;28;1860;-94
2022/07/16 02:08:26;;;;;;;;;;;;;;;16.78;60.05;100145.09;5096050;28;1318;-95
2022/07/16 02:10:52;;;;;;;;;;;;;;;16.77;59.89;100150.81;5094153;28;3117;-95
2022/07/16 02:13:19;;;;;;;;;;;;;;;16.74;59.96;100146.69;5078000;28;3744;-95
2022/07/16 02:15:46;;;;;;;;;;;;;;;16.75;60.04;100151.03;5081983;28;1956;-95
2022/07/16 02:18:12;;;;;;;;;;;;;;;16.73;60.00;100145.03;5089721;28;2821;-94
2022/07/16 02:20:39;;;;;;;;;;;;;;;16.74;59.98;100162.19;5095555;28;1316;-95
2022/07/16 02:23:05;;;;;;;;;;;;;;;16.72;60.04;100159.72;5095300;28;1178;-95
2022/07/16 02:25:32;;;;;;;;;;;;;;;16.70;59.89;100159.19;5091579;28;2090;-95
2022/07/16 02:28:07;;;;;;;;;;;;;;;16.68;59.93;100160.56;5091694;28;2343;-95
2022/07/16 02:30:34;;;;;;;;;;;;;;;16.68;60.08;100171.44;5086814;28;2762;-95
2022/07/16 02:33:00;;;;;;;;;;;;;;;16.66;60.05;100168.97;5094843;28;1352;-95
2022/07/16 02:35:27;;;;;;;;;;;;;;;16.65;60.11;100171.94;5087214;28;2347;-95
2022/07/16 02:37:54;;;;;;;;;;;;;;;16.62;60.09;100175.19;5087270;28;2202;-95
2022/07/16 02:40:20;;;;;;;;;;;;;;;16.62;60.02;100177.91;5105005;28;2263;-95
2022/07/16 02:42:47;;;;;;;;;;;;;;;16.60;60.06;100183.63;5089291;28;2352;-95
2022/07/16 02:45:13;;;;;;;;;;;;;;;16.61;60.01;100192.59;5074550;28;1190;-95
2022/07/16 02:47:40;;;;;;;;;;;;;;;16.57;60.12;100184.19;5077623;28;2315;-95
2022/07/16 02:50:07;;;;;;;;;;;;;;;16.55;60.18;100192.59;5089820;28;1935;-95
2022/07/16 02:52:33;;;;;;;;;;;;;;;16.54;60.17;100198.31;5085118;28;2431;-95
2022/07/16 02:55:00;;;;;;;;;;;;;;;16.54;60.14;100193.69;5071103;28;2334;-95
2022/07/16 02:57:26;;;;;;;;;;;;;;;16.54;60.04;100198.31;5083649;28;2241;-95
2022/07/16 02:59:53;;;;;;;;;;;;;;;16.52;60.09;100200.47;5074612;28;2548;-95
2022/07/16 03:02:20;;;;;;;;;;;;;;;16.52;60.08;100203.19;5084537;28;1715;-94
2022/07/16 03:04:46;;;;;;;;;;;;;;;16.50;60.04;100210.78;5095854;28;1215;-94
2022/07/16 03:07:13;;;;;;;;;;;;;;;16.47;60.19;100200.44;5089113;28;2118;-95
2022/07/16 03:09:39;;;;;;;;;;;;;;;16.46;60.19;100207.78;5080022;28;2387;-95
2022/07/16 03:12:06;;;;;;;;;;;;;;;16.46;60.24;100215.13;5077538;28;2419;-95
2022/07/16 03:14:32;;;;;;;;;;;;;;;16.44;60.14;100212.69;5090822;28;1986;-95
2022/07/16 03:16:59;;;;;;;;;;;;;;;16.43;60.19;100213.75;5089251;28;2213;-95
2022/07/16 03:19:25;;;;;;;;;;;;;;;16.42;60.10;100216.75;5100155;28;2234;-95
2022/07/16 03:21:52;;;;;;;;;;;;;;;16.41;60.21;100220.53;5084998;28;2185;-94
2022/07/16 03:24:18;;;;;;;;;;;;;;;16.39;60.09;100220.81;5102362;28;1176;-94
2022/07/16 03:26:45;;;;;;;;;;;;;;;16.38;60.18;100224.59;5090449;28;2201;-95
2022/07/16 03:29:11;;;;;;;;;;;;;;;16.38;60.15;100219.16;5083091;28;2241;-95
2022/07/16 03:31:38;;;;;;;;;;;;;;;16.38;60.10;100224.59;5077055;28;2352;-95
2022/07/16 03:34:05;;;;;;;;;;;;;;;16.37;60.18;100230.31;5088769;28;2505;-95
2022/07/16 03:36:31;;;;;;;;;;;;;;;16.36;60.13;100237.66;5088930;28;2465;-95
2022/07/16 03:39:04;;;;;;;;;;;;;;;16.35;60.13;100236.84;5082190;28;2240;-95
2022/07/16 03:41:31;;;;;;;;;;;;;;;16.34;60.15;100240.63;5080844;28;2335;-95
2022/07/16 03:43:58;;;;;;;;;;;;;;;16.33;60.06;100252.59;5075577;28;2395;-95
2022/07/16 03:46:24;;;;;;;;;;;;;;;16.33;60.08;100251.78;5081385;28;1179;-94
2022/07/16 03:48:51;;;;;;;;;;;;;;;16.32;60.04;100250.13;5103259;28;2351;-94
2022/07/16 03:51:17;;;;;;;;;;;;;;;16.31;60.05;100246.59;5077710;28;2345;-94
2022/07/16 03:53:44;;;;;;;;;;;;;;;16.30;60.05;100258.56;5089222;28;2367;-95
2022/07/16 03:56:11;;;;;;;;;;;;;;;16.29;60.09;100256.91;5089810;28;2066;-95
2022/07/16 03:58:37;;;;;;;;;;;;;;;16.28;60.07;100263.44;5086265;28;2348;-94
2022/07/16 04:01:03;;;;;;;;;;;;;;;16.27;60.10;100269.97;5082349;28;4933;-95
2022/07/16 04:03:30;;;;;;;;;;;;;;;16.27;60.01;100261.81;5082918;28;2335;-95
2022/07/16 04:05:56;;;;;;;;;;;;;;;16.26;60.00;100271.00;5090654;28;2383;-94
2022/07/16 04:08:23;;;;;;;;;;;;;;;16.26;59.98;100273.72;5077982;28;2327;-95
2022/07/16 04:10:49;;;;;;;;;;;;;;;16.25;59.97;100271.28;5077573;28;1302;-95
2022/07/16 04:13:16;;;;;;;;;;;;;;;16.25;59.98;100279.44;5086771;28;2438;-95
2022/07/16 04:15:43;;;;;;;;;;;;;;;16.23;60.06;100285.13;5087473;28;2335;-95
2022/07/16 04:18:09;;;;;;;;;;;;;;;16.24;60.04;100289.50;5085947;28;2088;-95
2022/07/16 04:20:36;;;;;;;;;;;;;;;16.24;59.92;100288.69;5077405;28;1186;-95
2022/07/16 04:23:02;;;;;;;;;;;;;;;16.23;59.92;100292.47;5084772;28;1628;-95
2022/07/16 04:25:29;;;;;;;;;;;;;;;16.22;59.99;100293.56;5097301;28;1304;-95
2022/07/16 04:27:55;;;;;;;;;;;;;;;16.21;59.94;100294.66;5097478;28;1298;-95
2022/07/16 04:30:22;;;;;;;;;;;;;;;16.21;59.98;100300.09;5097470;28;1307;-94
2022/07/16 04:32:48;;;;;;;;;;;;;;;16.19;59.92;100296.81;5092765;28;2601;-95
2022/07/16 04:35:15;;;;;;;;;;;;;;;16.19;59.98;100299.53;5086069;28;2146;-94
2022/07/16 04:37:41;;;;;;;;;;;;;;;16.18;59.89;100306.84;5089002;28;2241;-94
2022/07/16 04:40:08;;;;;;;;;;;;;;;16.18;59.79;100304.16;5110935;28;2354;-94
2022/07/16 04:42:35;;;;;;;;;;;;;;;16.16;59.86;100317.16;5090828;28;2679;-96
2022/07/16 04:45:01;;;;;;;;;;;;;;;16.16;59.80;100311.72;5097095;28;3350;-96
2022/07/16 04:47:28;;;;;;;;;;;;;;;16.16;59.88;100314.44;5090721;28;2152;-96
2022/07/16 04:49:55;;;;;;;;;;;;;;;16.16;59.88;100308.19;5080730;28;1357;-96
2022/07/16 04:52:21;;;;;;;;;;;;;;;16.15;59.76;100317.41;5091896;28;1306;-96
2022/07/16 04:54:48;;;;;;;;;;;;;;;16.15;59.88;100322.84;5095266;28;2133;-96
2022/07/16 04:57:14;;;;;;;;;;;;;;;16.13;59.83;100323.13;5091447;28;2366;-96
2022/07/16 04:59:41;;;;;;;;;;;;;;;16.13;59.71;100323.94;5107529;28;1653;-96
2022/07/16 05:04:51;;;;;;;;;;;;;;;16.12;59.77;100324.22;5092281;28;1249;-96
2022/07/16 05:07:19;;;;;;;;;;;;;;;16.12;59.71;100341.31;5101727;28;2279;-96
2022/07/16 05:09:45;;;;;;;;;;;;;;;16.11;59.73;100341.56;5091494;28;1976;-96
2022/07/16 05:12:12;;;;;;;;;;;;;;;16.11;59.75;100341.56;5079115;28;1329;-96
2022/07/16 05:14:39;;;;;;;;;;;;;;;16.10;59.71;100348.91;5077552;28;1429;-96
2022/07/16 05:17:06;;;;;;;;;;;;;;;16.10;59.79;100345.38;5082501;28;2532;-96
2022/07/16 05:19:32;;;;;;;;;;;;;;;16.08;59.63;100347.53;5080823;28;2017;-96
2022/07/16 05:21:59;;;;;;;;;;;;;;;16.08;59.72;100351.06;5092428;28;2327;-96
2022/07/16 05:24:25;;;;;;;;;;;;;;;16.08;59.63;100348.34;5088706;28;1979;-96
2022/07/16 05:26:53;;;;;;;;;;;;;;;16.06;59.78;100353.25;5104275;28;1522;-96
2022/07/16 05:29:20;;;;;;;;;;;;;;;16.05;59.75;100357.00;5099714;28;1542;-96
2022/07/16 05:31:46;;;;;;;;;;;;;;;16.07;59.65;100356.78;5086019;28;1436;-96
2022/07/16 05:34:13;;;;;;;;;;;;;;;16.06;59.64;100366.81;5100568;28;1271;-96
2022/07/16 05:36:40;;;;;;;;;;;;;;;16.05;59.62;100359.72;5097891;28;2563;-96
2022/07/16 05:39:06;;;;;;;;;;;;;;;16.06;59.69;100366.81;5080913;28;1966;-96
2022/07/16 05:41:33;;;;;;;;;;;;;;;16.05;59.52;100367.88;5092721;28;2402;-96
2022/07/16 05:43:59;;;;;;;;;;;;;;;16.04;59.60;100365.44;5091755;28;2363;-96
2022/07/16 05:46:26;;;;;;;;;;;;;;;16.05;59.56;100369.78;5095775;28;2662;-96
2022/07/16 05:48:53;;;;;;;;;;;;;;;16.04;59.58;100373.59;5096812;28;1195;-96
2022/07/16 05:51:20;;;;;;;;;;;;;;;16.03;59.61;100369.22;5096695;28;1715;-96
2022/07/16 05:53:46;;;;;;;;;;;;;;;16.02;59.68;100373.84;5085796;28;1267;-96
2022/07/16 05:56:13;;;;;;;;;;;;;;;16.02;59.58;100368.41;5089741;28;1902;-96
2022/07/16 05:58:40;;;;;;;;;;;;;;;16.02;59.63;100371.13;5084268;28;1332;-96
2022/07/16 06:01:06;;;;;;;;;;;;;;;16.02;59.53;100373.03;5086011;28;1855;-96
2022/07/16 06:03:33;;;;;;;;;;;;;;;16.02;59.55;100373.84;5094459;28;1939;-96
2022/07/16 06:06:00;;;;;;;;;;;;;;;16.01;59.53;100380.34;5077316;28;1339;-96
2022/07/16 06:08:27;;;;;;;;;;;;;;;16.00;59.48;100386.88;5086106;28;2559;-96
2022/07/16 06:10:53;;;;;;;;;;;;;;;15.99;59.47;100382.50;5085412;28;2406;-96
2022/07/16 06:13:20;;;;;;;;;;;;;;;15.99;59.51;100392.56;5086707;28;2425;-96
2022/07/16 06:15:46;;;;;;;;;;;;;;;15.99;59.49;100382.50;5085394;28;2379;-96
2022/07/16 06:18:13;;;;;;;;;;;;;;;15.98;59.58;100389.03;5076337;28;1979;-96
2022/07/16 06:20:40;;;;;;;;;;;;;;;15.98;59.54;100389.03;5096602;28;1179;-96
2022/07/16 06:23:06;;;;;;;;;;;;;;;15.96;59.55;100387.66;5096127;28;1693;-96
2022/07/16 06:25:33;;;;;;;;;;;;;;;15.96;59.54;100391.16;5096587;28;1249;-96
2022/07/16 06:27:59;;;;;;;;;;;;;;;15.97;59.52;100394.69;5095105;28;2180;-96
2022/07/16 06:30:26;;;;;;;;;;;;;;;15.97;59.47;100394.69;5086433;28;2084;-96
2022/07/16 06:32:55;;;;;;;;;;;;;;;15.96;59.43;100393.06;5082849;28;2364;-96
2022/07/16 06:35:22;;;;;;;;;;;;;;;15.95;59.45;100399.59;5085717;28;2123;-96
2022/07/16 06:37:48;;;;;;;;;;;;;;;15.99;59.40;100403.41;5075732;28;2343;-96
2022/07/16 06:40:15;;;;;;;;;;;;;;;15.97;59.53;100403.69;5069273;28;2341;-96
2022/07/16 06:42:41;;;;;;;;;;;;;;;15.96;59.51;100406.66;5083563;28;2388;-96
2022/07/16 06:45:08;;;;;;;;;;;;;;;15.95;59.39;100405.03;5093140;28;2090;-96
2022/07/16 06:47:34;;;;;;;;;;;;;;;15.97;59.36;100406.41;5105398;28;2208;-96
2022/07/16 06:50:01;;;;;;;;;;;;;;;15.96;59.35;100403.94;5085164;28;2078;-96
2022/07/16 06:52:27;;;;;;;;;;;;;;;15.95;59.44;100405.84;5101909;28;2347;-96
2022/07/16 06:54:54;;;;;;;;;;;;;;;15.95;59.45;100407.75;5089154;28;2230;-96
2022/07/16 06:57:22;;;;;;;;;;;;;;;15.93;59.31;100410.69;5093551;28;1901;-96
2022/07/16 06:59:56;;;;;;;;;;;;;;;15.94;59.44;100412.31;5073928;28;1998;-96
2022/07/16 07:02:22;;;;;;;;;;;;;;;15.96;59.38;100414.81;5084580;28;2829;-96
2022/07/16 07:04:49;;;;;;;;;;;;;;;15.95;59.29;100416.69;5085476;28;1990;-96
2022/07/16 07:07:19;;;;;;;;;;;;;;;15.94;59.33;100427.81;5090608;28;1361;-96
2022/07/16 07:09:45;;;;;;;;;;;;;;;15.93;59.36;100423.47;5078518;28;1442;-96
2022/07/16 07:12:12;;;;;;;;;;;;;;;15.94;59.40;100428.63;5081274;28;3405;-96
2022/07/16 07:14:41;;;;;;;;;;;;;;;15.93;59.37;100431.63;5103750;28;1959;-96
2022/07/16 07:17:15;;;;;;;;;;;;;;;15.94;59.33;100433.25;5082895;28;2584;-96
2022/07/16 07:19:55;;;;;;;;;;;;;;;15.94;59.17;100431.34;5105941;28;1632;-96
2022/07/16 07:22:25;;;;;;;;;;;;;;;15.94;59.28;100435.97;5068799;28;1602;-96
2022/07/16 07:24:52;;;;;;;;;;;;;;;15.94;59.23;100439.50;5068705;28;1478;-96
2022/07/16 07:27:23;;;;;;;;;;;;;;;15.94;59.21;100444.91;5089571;28;1918;-96
2022/07/16 07:29:50;;;;;;;;;;;;;;;15.94;59.21;100442.22;5088767;28;1989;-96
2022/07/16 07:32:21;;;;;;;;;;;;;;;15.93;59.34;100446.00;5112985;28;1211;-96
2022/07/16 07:34:49;;;;;;;;;;;;;;;15.92;59.28;100444.38;5087095;28;1864;-96
2022/07/16 07:37:16;;;;;;;;;;;;;;;15.93;59.34;100447.91;5089466;28;2292;-96
2022/07/16 07:39:43;;;;;;;;;;;;;;;15.94;59.34;100444.91;5082106;28;1327;-96
2022/07/16 07:42:09;;;;;;;;;;;;;;;15.94;59.25;100452.25;5088741;28;1834;-96
2022/07/16 07:44:36;;;;;;;;;;;;;;;15.96;59.23;100444.69;5077879;28;1303;-96
2022/07/16 07:47:03;;;;;;;;;;;;;;;15.94;59.28;100446.81;5109850;28;1373;-94
2022/07/16 07:49:34;;;;;;;;;;;;;;;15.94;59.28;100444.09;5089365;28;2030;-94
2022/07/16 07:52:00;;;;;;;;;;;;;;;15.93;59.30;100445.19;5113530;28;1158;-95
2022/07/16 07:54:27;;;;;;;;;;;;;;;15.94;59.16;100447.63;5068622;28;2318;-94
2022/07/16 07:56:53;;;;;;;;;;;;;;;15.95;59.41;100445.75;5088031;28;2008;-94
2022/07/16 07:59:26;;;;;;;;;;;;;;;15.95;59.13;100449.28;5087697;28;2211;-94
2022/07/16 08:01:52;;;;;;;;;;;;;;;15.95;59.25;100449.28;5097012;28;1825;-94
2022/07/16 08:04:19;;;;;;;;;;;;;;;15.96;59.16;100455.53;5097074;28;1727;-95
2022/07/16 08:06:45;;;;;;;;;;;;;;;15.95;59.16;100454.72;5097365;28;2461;-96
2022/07/16 08:09:12;;;;;;;;;;;;;;;15.95;59.05;100454.72;5095808;28;1699;-96
2022/07/16 08:11:38;;;;;;;;;;;;;;;15.96;59.11;100461.78;5095206;28;2012;-94
2022/07/16 08:14:05;;;;;;;;;;;;;;;15.97;59.21;100468.03;5096511;28;1996;-94
2022/07/16 08:16:32;;;;;;;;;;;;;;;15.97;59.19;100468.88;5089800;28;2120;-95
2022/07/16 08:18:59;;;;;;;;;;;;;;;15.98;59.11;100465.06;5092444;28;2014;-95
2022/07/16 08:21:25;;;;;;;;;;;;;;;15.98;59.17;100466.97;5095205;28;2263;-94
2022/07/16 08:26:36;;;;;;;;;;;;;;;15.99;59.25;100482.19;5096153;28;1843;-95
2022/07/16 08:29:03;;;;;;;;;;;;;;;16.00;59.17;100475.66;5097076;28;1206;-95
2022/07/16 08:31:29;;;;;;;;;;;;;;;16.00;59.16;100475.66;5078861;28;1411;-94
2022/07/16 08:33:56;;;;;;;;;;;;;;;15.99;59.17;100474.84;5096901;28;1205;-94
2022/07/16 08:36:23;;;;;;;;;;;;;;;15.99;59.15;100472.13;5095030;28;2134;-94
2022/07/16 08:38:49;;;;;;;;;;;;;;;15.99;59.07;100465.88;5097070;28;1954;-95
2022/07/16 08:41:16;;;;;;;;;;;;;;;15.99;59.13;100474.03;5094576;28;1992;-94
2022/07/16 08:43:42;;;;;;;;;;;;;;;15.99;59.31;100468.59;5099791;28;1813;-95
2022/07/16 08:46:10;;;;;;;;;;;;;;;16.01;59.20;100477.31;5090823;28;1577;-94
2022/07/16 08:48:36;;;;;;;;;;;;;;;16.00;59.18;100472.94;5097236;28;2022;-94
2022/07/16 08:51:03;;;;;;;;;;;;;;;15.98;59.25;100467.78;5098109;28;1872;-95
2022/07/16 08:56:18;;;;;;;;;;;;;;;16.00;59.09;100471.09;5331963;22;2222;-93
2022/07/16 08:58:44;;;;;;;;;;;;;;;16.01;59.26;100474.63;5100635;28;1905;-94
2022/07/16 09:01:11;;;;;;;;;;;;;;;16.00;59.17;100481.09;5105088;27;4658;-94
2022/07/16 09:03:38;;;;;;;;;;;;;;;16.02;59.33;100476.25;5129522;27;2270;-94
2022/07/16 09:06:04;;;;;;;;;;;;;;;16.02;59.02;100478.97;5100249;28;1191;-94
2022/07/16 09:08:31;;;;;;;;;;;;;;;16.02;59.18;100470.81;5100160;28;1172;-93
2022/07/16 09:10:57;;;;;;;;;;;;;;;16.02;59.08;100476.25;5108542;27;1836;-94
2022/07/16 09:13:24;;;;;;;;;;;;;;;16.02;59.17;100482.50;5120839;27;1306;-96
2022/07/16 09:15:51;;;;;;;;;;;;;;;16.04;59.21;100482.25;5114350;28;1901;-94
2022/07/16 09:18:18;;;;;;;;;;;;;;;16.03;59.13;100481.44;5104383;27;1989;-95
2022/07/16 09:20:44;;;;;;;;;;;;;;;16.06;59.22;100480.91;5110667;27;2083;-94
2022/07/16 09:23:11;;;;;;;;;;;;;;;16.04;59.14;100472.19;5119856;27;2138;-94
2022/07/16 09:25:37;;;;;;;;;;;;;;;16.05;59.17;100487.41;5114879;27;1859;-95
2022/07/16 09:28:04;;;;;;;;;;;;;;;16.07;59.19;100484.44;5119356;27;1830;-94
2022/07/16 09:30:30;;;;;;;;;;;;;;;16.07;59.29;100473.56;5134660;27;1561;-94
2022/07/16 09:32:57;;;;;;;;;;;;;;;16.07;59.12;100481.72;5113431;27;2565;-93
2022/07/16 09:35:23;;;;;;;;;;;;;;;16.09;59.11;100491.25;5117878;27;1339;-94
2022/07/16 09:37:51;;;;;;;;;;;;;;;16.08;58.96;100486.88;5118655;27;1998;-94
2022/07/16 09:40:18;;;;;;;;;;;;;;;16.09;59.12;100488.53;5118852;27;2064;-94
2022/07/16 09:42:44;;;;;;;;;;;;;;;16.11;59.18;100485.56;5097662;28;2776;-93
2022/07/16 09:45:11;;;;;;;;;;;;;;;16.12;59.14;100479.06;5099305;27;1770;-95
2022/07/16 09:47:37;;;;;;;;;;;;;;;16.12;58.83;100484.50;5099842;28;2096;-94
2022/07/16 09:50:04;;;;;;;;;;;;;;;16.13;58.75;100484.22;5099236;28;1760;-94
2022/07/16 09:52:30;;;;;;;;;;;;;;;16.15;59.00;100488.56;5107926;27;1316;-94
2022/07/16 09:54:57;;;;;;;;;;;;;;;16.16;59.00;100491.03;5106788;27;1436;-94
2022/07/16 09:57:25;;;;;;;;;;;;;;;16.17;58.93;100491.84;5113586;27;1975;-94
2022/07/16 09:59:52;;;;;;;;;;;;;;;16.16;59.01;100488.31;5104370;28;2376;-94
2022/07/16 10:02:18;;;;;;;;;;;;;;;16.16;58.91;100491.03;5099323;28;1823;-94
2022/07/16 10:04:45;;;;;;;;;;;;;;;16.17;59.01;100494.56;5100603;27;1944;-94
2022/07/16 10:07:11;;;;;;;;;;;;;;;16.16;59.25;100484.78;5119583;27;1229;-93
2022/07/16 10:09:38;;;;;;;;;;;;;;;16.18;59.40;100493.47;5108562;27;1950;-94
2022/07/16 10:12:05;;;;;;;;;;;;;;;16.18;59.30;100497.03;5104489;28;1662;-93
2022/07/16 10:14:31;;;;;;;;;;;;;;;16.20;59.05;100500.31;5100543;27;1223;-94
2022/07/16 10:16:58;;;;;;;;;;;;;;;16.20;59.12;100496.78;5103290;28;1901;-94
2022/07/16 10:19:24;;;;;;;;;;;;;;;16.21;59.30;100498.44;5130756;27;1522;-93
2022/07/16 10:21:51;;;;;;;;;;;;;;;16.21;59.33;100499.25;5103869;28;2266;-94
2022/07/16 10:24:17;;;;;;;;;;;;;;;16.21;59.19;100495.72;5103916;27;1916;-94
2022/07/16 10:26:44;;;;;;;;;;;;;;;16.22;59.45;100513.66;5111215;28;1794;-94
2022/07/16 10:29:11;;;;;;;;;;;;;;;16.23;59.43;100515.28;5098943;28;1293;-94
2022/07/16 10:31:37;;;;;;;;;;;;;;;16.23;59.49;100516.09;5103670;28;1912;-94
2022/07/16 10:34:04;;;;;;;;;;;;;;;16.24;59.49;100508.78;5116351;27;1792;-93
2022/07/16 10:36:30;;;;;;;;;;;;;;;16.23;59.47;100513.38;5105563;28;1745;-95
2022/07/16 10:38:57;;;;;;;;;;;;;;;16.25;59.43;100518.56;5098737;28;1913;-96
2022/07/16 10:41:29;;;;;;;;;;;;;;;16.26;59.34;100518.28;5096573;28;2148;-96
2022/07/16 10:43:55;;;;;;;;;;;;;;;16.28;59.29;100518.06;5106579;27;2131;-94
2022/07/16 10:46:22;;;;;;;;;;;;;;;16.29;59.33;100519.69;5108185;28;1713;-96
2022/07/16 10:48:49;;;;;;;;;;;;;;;16.30;59.04;100505.84;5100907;27;1716;-96
2022/07/16 10:51:15;;;;;;;;;;;;;;;16.31;59.09;100514.81;5118990;27;1217;-95
2022/07/16 10:53:42;;;;;;;;;;;;;;;16.31;59.36;100512.09;5118447;27;1201;-96
2022/07/16 10:56:08;;;;;;;;;;;;;;;16.33;59.33;100508.03;5103764;28;1933;-96
2022/07/16 10:58:35;;;;;;;;;;;;;;;16.33;59.67;100507.22;5109261;27;1909;-96
2022/07/16 11:01:02;;;;;;;;;;;;;;;16.35;59.61;100510.47;5118635;27;1183;-96
2022/07/16 11:03:29;;;;;;;;;;;;;;;16.36;59.78;100512.16;5118641;27;1187;-96
2022/07/16 11:05:56;;;;;;;;;;;;;;;16.35;59.82;100505.91;5112710;27;1820;-96
2022/07/16 11:08:22;;;;;;;;;;;;;;;16.37;59.77;100508.34;5099890;27;1782;-96
2022/07/16 11:10:49;;;;;;;;;;;;;;;16.37;59.70;100505.63;5107604;28;1798;-96
2022/07/16 11:13:15;;;;;;;;;;;;;;;16.40;59.81;100512.44;5100024;27;1187;-96
2022/07/16 11:15:42;;;;;;;;;;;;;;;16.40;59.85;100509.72;5118550;27;1298;-95
2022/07/16 11:18:15;;;;;;;;;;;;;;;16.40;59.86;100507.81;5119976;27;1909;-96
2022/07/16 11:20:42;;;;;;;;;;;;;;;16.41;59.91;100509.44;5133543;27;1191;-95
2022/07/16 11:23:08;;;;;;;;;;;;;;;16.42;59.79;100510.28;5100317;27;1912;-96
2022/07/16 11:25:35;;;;;;;;;;;;;;;16.43;59.91;100504.56;5101830;28;1857;-96
2022/07/16 11:28:02;;;;;;;;;;;;;;;16.44;59.86;100508.13;5098322;28;1281;-96
2022/07/16 11:30:28;;;;;;;;;;;;;;;16.46;59.92;100511.41;5108540;28;2431;-96
2022/07/16 11:32:55;;;;;;;;;;;;;;;16.46;59.78;100504.06;5101600;28;2595;-96
2022/07/16 11:35:21;;;;;;;;;;;;;;;16.47;59.80;100499.44;5112350;28;1691;-96
2022/07/16 11:37:48;;;;;;;;;;;;;;;16.49;59.83;100508.97;5116850;28;1984;-96
2022/07/16 11:40:14;;;;;;;;;;;;;;;16.50;59.77;100501.63;5106246;28;1972;-96
2022/07/16 11:42:41;;;;;;;;;;;;;;;16.51;59.75;100504.09;5098259;28;1251;-96
2022/07/16 11:45:09;;;;;;;;;;;;;;;16.52;59.56;100504.91;5099798;28;1312;-96
2022/07/16 11:47:36;;;;;;;;;;;;;;;16.53;59.33;100503.84;5111733;28;1832;-96
2022/07/16 11:50:03;;;;;;;;;;;;;;;16.53;59.63;100504.69;5107117;28;1499;-96
2022/07/16 11:52:30;;;;;;;;;;;;;;;16.54;59.80;100503.59;5100504;28;1739;-96
2022/07/16 11:54:57;;;;;;;;;;;;;;;16.55;59.71;100505.22;5116723;28;1728;-95
2022/07/16 11:57:23;;;;;;;;;;;;;;;16.57;59.72;100502.25;5115366;28;1976;-96
2022/07/16 11:59:51;;;;;;;;;;;;;;;16.57;59.85;100496.81;5117837;28;1187;-96
2022/07/16 12:02:18;;;;;;;;;;;;;;;16.58;59.96;100501.97;5113306;28;2550;-96
2022/07/16 12:04:45;;;;;;;;;;;;;;;16.60;59.98;100509.06;5105861;28;1647;-96
2022/07/16 12:07:11;;;;;;;;;;;;;;;16.59;60.04;100508.25;5118225;28;1324;-96
2022/07/16 12:09:38;;;;;;;;;;;;;;;16.60;60.01;100501.72;5103368;28;1955;-96
2022/07/16 12:12:05;;;;;;;;;;;;;;;16.61;60.09;100506.06;5104530;28;3245;-96
2022/07/16 12:14:32;;;;;;;;;;;;;;;16.62;60.08;100507.72;5118634;28;1254;-96
2022/07/16 12:16:59;;;;;;;;;;;;;;;16.65;60.16;100509.09;5118032;27;1189;-96
2022/07/16 12:19:26;;;;;;;;;;;;;;;16.66;60.12;100497.16;5121871;27;1886;-96
2022/07/16 12:21:55;;;;;;;;;;;;;;;16.67;60.19;100505.03;5123946;27;1835;-94
2022/07/16 12:24:22;;;;;;;;;;;;;;;16.68;59.99;100498.53;5122787;27;1732;-96
2022/07/16 12:26:50;;;;;;;;;;;;;;;16.69;60.08;100505.59;5122285;27;1423;-96
2022/07/16 12:29:17;;;;;;;;;;;;;;;16.71;60.05;100510.78;5122036;27;1288;-96
2022/07/16 12:31:44;;;;;;;;;;;;;;;16.72;60.13;100515.13;5118024;27;2772;-96
2022/07/16 12:34:10;;;;;;;;;;;;;;;16.71;60.25;100508.88;5121532;27;1272;-96
2022/07/16 12:36:37;;;;;;;;;;;;;;;16.72;60.28;100509.69;5116506;27;1705;-96
2022/07/16 12:39:03;;;;;;;;;;;;;;;16.75;60.28;100509.97;5121421;27;1963;-96
2022/07/16 12:41:30;;;;;;;;;;;;;;;16.77;60.39;100507.06;5121561;27;1189;-96
2022/07/16 12:43:56;;;;;;;;;;;;;;;16.78;60.31;100511.41;5121501;27;1317;-96
2022/07/16 12:46:23;;;;;;;;;;;;;;;16.79;60.45;100504.88;5121234;27;1297;-96
2022/07/16 12:48:50;;;;;;;;;;;;;;;16.81;60.38;100508.16;5112273;27;1207;-96
2022/07/16 12:51:17;;;;;;;;;;;;;;;16.82;60.46;100506.25;5122103;27;2538;-96
2022/07/16 12:53:44;;;;;;;;;;;;;;;16.84;60.39;100493.22;5139353;27;1291;-96
2022/07/16 12:58:55;;;;;;;;;;;;;;;16.86;60.52;100505.47;5121616;27;1902;-96
2022/07/16 13:01:21;;;;;;;;;;;;;;;16.89;60.54;100501.41;5121457;27;1242;-96
2022/07/16 13:03:48;;;;;;;;;;;;;;;16.89;60.50;100495.97;5120975;27;1306;-96